createdAt,value
2022-10-25T00:01:56.428Z,7.90
2022-10-25T00:04:38.267Z,8.40
2022-10-25T00:07:19.951Z,8.40
2022-10-25T00:10:01.745Z,8.40
2022-10-25T00:12:45.191Z,8.70
2022-10-25T00:15:27.174Z,8.80
2022-10-25T00:18:08.864Z,9.00
2022-10-25T00:20:50.712Z,8.20
2022-10-25T00:23:32.451Z,8.80
2022-10-25T00:26:14.653Z,8.50
2022-10-25T00:28:56.653Z,9.00
2022-10-25T00:31:38.958Z,9.40
2022-10-25T00:34:20.607Z,10.50
2022-10-25T00:37:02.339Z,9.00
2022-10-25T00:39:46.083Z,8.20
2022-10-25T00:42:29.293Z,8.20
2022-10-25T00:45:18.573Z,8.50
2022-10-25T00:48:09.895Z,9.00
2022-10-25T00:50:54.553Z,8.50
2022-10-25T00:53:37.517Z,9.20
2022-10-25T00:56:23.313Z,9.80
2022-10-25T00:59:09.249Z,9.40
2022-10-25T01:01:53.885Z,11.50
2022-10-25T01:04:35.805Z,9.20
2022-10-25T01:07:17.598Z,8.60
2022-10-25T01:09:59.289Z,8.00
2022-10-25T01:12:41.084Z,8.80
2022-10-25T01:15:27.484Z,8.80
2022-10-25T01:18:22.896Z,8.10
2022-10-25T01:21:36.945Z,8.50
2022-10-25T01:24:45.468Z,8.80
2022-10-25T01:27:51.888Z,8.00
2022-10-25T01:31:07.343Z,7.90
2022-10-25T01:34:07.570Z,8.50
2022-10-25T01:37:05.619Z,9.30
2022-10-25T01:39:57.549Z,8.20
2022-10-25T01:42:53.169Z,8.30
2022-10-25T01:45:46.327Z,9.40
2022-10-25T01:48:36.830Z,8.90
2022-10-25T01:54:00.617Z,8.00
2022-10-25T01:56:54.288Z,8.20
2022-10-25T02:00:20.523Z,8.70
2022-10-25T02:03:18.393Z,9.30
2022-10-25T02:06:20.463Z,8.60
2022-10-25T02:09:20.906Z,8.70
2022-10-25T02:14:58.304Z,7.90
2022-10-25T02:17:50.391Z,8.80
2022-10-25T02:20:35.920Z,8.40
2022-10-25T02:23:20.751Z,8.80
2022-10-25T02:26:06.263Z,7.60
2022-10-25T02:28:49.081Z,7.90
2022-10-25T02:31:34.150Z,7.90
2022-10-25T02:34:15.841Z,7.70
2022-10-25T02:36:58.046Z,9.10
2022-10-25T02:39:40.045Z,9.50
2022-10-25T02:42:21.836Z,8.70
2022-10-25T02:45:03.629Z,8.90
2022-10-25T02:47:45.538Z,9.10
2022-10-25T02:50:27.625Z,9.50
2022-10-25T02:53:09.522Z,9.10
2022-10-25T02:56:07.450Z,9.10
2022-10-25T02:58:51.540Z,9.50
2022-10-25T03:01:33.298Z,9.80
2022-10-25T03:04:15.126Z,8.50
2022-10-25T03:06:57.840Z,8.60
2022-10-25T03:09:39.546Z,10.70
2022-10-25T03:12:21.223Z,9.00
2022-10-25T03:15:03.119Z,8.20
2022-10-25T03:17:45.004Z,8.90
2022-10-25T03:20:27.217Z,9.20
2022-10-25T03:23:10.034Z,9.40
2022-10-25T03:25:54.288Z,9.40
2022-10-25T03:28:36.284Z,9.90
2022-10-25T03:31:18.488Z,8.80
2022-10-25T03:34:00.280Z,9.50
2022-10-25T03:36:41.934Z,9.40
2022-10-25T03:39:23.765Z,9.30
2022-10-25T03:42:05.660Z,9.00
2022-10-25T03:44:47.658Z,9.30
2022-10-25T03:47:29.349Z,8.90
2022-10-25T03:50:11.756Z,8.40
2022-10-25T03:52:53.571Z,10.30
2022-10-25T03:55:35.344Z,10.00
2022-10-25T03:58:17.955Z,10.40
2022-10-25T04:01:00.093Z,9.70
2022-10-25T04:03:44.175Z,10.10
2022-10-25T04:06:25.896Z,9.50
2022-10-25T04:09:07.566Z,10.40
2022-10-25T04:11:49.276Z,10.30
2022-10-25T04:14:30.969Z,10.20
2022-10-25T04:17:12.660Z,10.60
2022-10-25T04:19:54.554Z,17.20
2022-10-25T04:25:28.382Z,18.20
2022-10-25T04:28:10.175Z,11.90
2022-10-25T04:30:52.071Z,11.00
2022-10-25T04:33:33.865Z,10.70
2022-10-25T04:36:16.069Z,10.60
2022-10-25T04:38:57.741Z,14.20
2022-10-25T04:41:39.448Z,10.30
2022-10-25T04:44:21.083Z,11.60
2022-10-25T04:47:02.727Z,10.80
2022-10-25T04:49:44.382Z,10.00
2022-10-25T04:52:26.113Z,10.40
2022-10-25T04:55:08.138Z,11.00
2022-10-25T04:57:51.541Z,10.20
2022-10-25T05:00:33.194Z,17.60
2022-10-25T05:03:14.857Z,12.00
2022-10-25T05:06:07.471Z,11.70
2022-10-25T05:08:51.378Z,11.20
2022-10-25T05:11:33.151Z,10.90
2022-10-25T05:14:15.201Z,10.30
2022-10-25T05:16:56.893Z,10.80
2022-10-25T05:19:38.789Z,10.10
2022-10-25T05:22:20.684Z,9.70
2022-10-25T05:25:02.479Z,10.90
2022-10-25T05:27:44.578Z,11.70
2022-10-25T05:30:26.269Z,11.30
2022-10-25T05:33:07.984Z,10.00
2022-10-25T05:35:49.855Z,10.10
2022-10-25T05:38:34.276Z,10.70
2022-10-25T05:41:19.800Z,10.30
2022-10-25T05:44:01.483Z,10.40
2022-10-25T05:46:44.504Z,10.80
2022-10-25T05:49:26.297Z,11.40
2022-10-25T05:52:08.602Z,11.70
2022-10-25T05:54:50.506Z,13.10
2022-10-25T05:57:32.294Z,11.10
2022-10-25T06:00:14.194Z,11.20
2022-10-25T06:02:56.724Z,10.60
2022-10-25T06:05:42.049Z,11.30
2022-10-25T06:08:24.281Z,12.00
2022-10-25T06:11:12.011Z,10.60
2022-10-25T06:13:54.316Z,9.20
2022-10-25T06:16:37.954Z,10.20
2022-10-25T06:19:20.053Z,10.40
2022-10-25T06:22:02.156Z,11.20
2022-10-25T06:24:43.945Z,10.80
2022-10-25T06:27:26.252Z,10.80
2022-10-25T06:30:08.659Z,11.40
2022-10-25T06:33:18.728Z,10.10
2022-10-25T06:36:02.636Z,10.30
2022-10-25T06:38:45.885Z,14.50
2022-10-25T06:41:28.702Z,14.10
2022-10-25T06:44:10.808Z,12.80
2022-10-25T06:47:15.970Z,12.10
2022-10-25T06:49:58.087Z,11.90
2022-10-25T06:52:39.941Z,12.90
2022-10-25T06:55:21.733Z,11.60
2022-10-25T06:58:03.781Z,11.40
2022-10-25T07:00:47.421Z,11.90
2022-10-25T07:03:35.650Z,12.00
2022-10-25T07:07:02.625Z,11.90
2022-10-25T07:10:13.030Z,10.10
2022-10-25T07:12:54.722Z,15.00
2022-10-25T07:15:38.659Z,17.60
2022-10-25T07:18:23.428Z,12.80
2022-10-25T07:21:07.801Z,11.80
2022-10-25T07:23:50.883Z,10.30
2022-10-25T07:26:35.783Z,9.50
2022-10-25T07:29:17.567Z,11.70
2022-10-25T07:31:59.357Z,9.30
2022-10-25T07:34:41.000Z,9.00
2022-10-25T07:37:22.947Z,9.60
2022-10-25T07:40:05.352Z,9.20
2022-10-25T07:42:49.503Z,9.30
2022-10-25T07:45:31.415Z,10.30
2022-10-25T07:48:13.291Z,10.10
2022-10-25T07:50:55.190Z,11.40
2022-10-25T07:53:36.981Z,11.60
2022-10-25T07:56:23.365Z,12.60
2022-10-25T07:59:05.690Z,9.60
2022-10-25T08:01:47.575Z,9.00
2022-10-25T08:07:18.645Z,9.20
2022-10-25T08:10:00.335Z,8.70
2022-10-25T08:12:42.026Z,9.20
2022-10-25T08:15:23.823Z,8.90
2022-10-25T08:18:07.662Z,11.80
2022-10-25T08:21:01.700Z,9.50
2022-10-25T08:23:44.569Z,9.70
2022-10-25T08:26:26.968Z,10.20
2022-10-25T08:29:08.760Z,9.00
2022-10-25T08:31:50.463Z,8.50
2022-10-25T08:34:33.226Z,10.00
2022-10-25T08:37:15.267Z,9.30
2022-10-25T08:39:57.063Z,10.00
2022-10-25T08:42:41.824Z,10.80
2022-10-25T08:45:34.880Z,10.30
2022-10-25T08:48:20.262Z,10.20
2022-10-25T08:51:15.059Z,10.70
2022-10-25T08:54:01.663Z,9.70
2022-10-25T08:56:57.045Z,9.00
2022-10-25T08:59:51.163Z,9.80
2022-10-25T09:02:54.043Z,9.70
2022-10-25T09:05:42.351Z,9.50
2022-10-25T09:08:39.647Z,10.40
2022-10-25T09:11:47.347Z,10.00
2022-10-25T09:14:40.967Z,12.80
2022-10-25T09:17:34.490Z,11.40
2022-10-25T09:20:21.974Z,9.10
2022-10-25T09:23:13.854Z,8.70
2022-10-25T09:26:15.911Z,8.00
2022-10-25T09:29:28.937Z,7.10
2022-10-25T09:32:21.802Z,7.10
2022-10-25T09:35:05.794Z,6.30
2022-10-25T09:37:55.674Z,5.30
2022-10-25T09:40:49.820Z,5.30
2022-10-25T09:44:07.126Z,4.80
2022-10-25T09:46:54.861Z,5.50
2022-10-25T09:50:00.511Z,4.90
2022-10-25T09:52:50.471Z,5.00
2022-10-25T09:55:48.165Z,5.30
2022-10-25T09:58:32.702Z,5.20
2022-10-25T10:01:28.507Z,5.20
2022-10-25T10:04:26.387Z,5.50
2022-10-25T10:07:24.183Z,4.70
2022-10-25T10:10:11.352Z,5.30
2022-10-25T10:13:11.935Z,6.50
2022-10-25T10:15:59.914Z,5.30
2022-10-25T10:18:43.815Z,5.10
2022-10-25T10:21:25.609Z,5.00
2022-10-25T10:24:07.401Z,5.30
2022-10-25T10:26:55.619Z,6.70
2022-10-25T10:29:52.902Z,6.50
2022-10-25T10:35:29.563Z,10.80
2022-10-25T10:38:26.647Z,6.30
2022-10-25T10:41:21.343Z,6.30
2022-10-25T10:44:13.899Z,6.00
2022-10-25T10:46:56.170Z,6.80
2022-10-25T10:49:41.060Z,7.60
2022-10-25T10:52:35.039Z,7.90
2022-10-25T10:55:27.994Z,8.10
2022-10-25T10:58:17.569Z,6.50
2022-10-25T11:01:03.168Z,8.00
2022-10-25T11:03:59.503Z,6.90
2022-10-25T11:06:44.965Z,6.00
2022-10-25T11:09:27.014Z,11.60
2022-10-25T11:12:13.022Z,25.10
2022-10-25T11:14:55.977Z,18.50
2022-10-25T11:17:43.780Z,17.60
2022-10-25T11:20:31.051Z,14.50
2022-10-25T11:23:22.962Z,18.50
2022-10-25T11:26:13.462Z,18.20
2022-10-25T11:29:06.829Z,12.10
2022-10-25T11:32:01.315Z,14.40
2022-10-25T11:34:48.589Z,8.40
2022-10-25T11:37:41.490Z,9.40
2022-10-25T11:40:30.148Z,6.20
2022-10-25T11:43:53.310Z,4.30
2022-10-25T11:46:58.041Z,5.10
2022-10-25T11:50:21.305Z,5.20
2022-10-25T11:53:24.910Z,6.30
2022-10-25T11:56:34.147Z,4.70
2022-10-25T12:00:03.047Z,3.70
2022-10-25T12:06:12.408Z,5.20
2022-10-25T12:09:19.491Z,6.10
2022-10-25T12:12:10.398Z,4.50
2022-10-25T12:14:58.016Z,6.30
2022-10-25T12:17:40.333Z,4.50
2022-10-25T12:20:26.517Z,4.20
2022-10-25T12:23:13.956Z,4.60
2022-10-25T12:26:33.534Z,4.90
2022-10-25T12:29:24.543Z,5.60
2022-10-25T12:32:14.719Z,6.50
2022-10-25T12:34:59.715Z,10.20
2022-10-25T12:37:49.030Z,26.10
2022-10-25T12:40:41.551Z,8.40
2022-10-25T12:43:46.875Z,5.30
2022-10-25T12:46:53.466Z,4.80
2022-10-25T12:49:54.174Z,5.40
2022-10-25T12:52:39.025Z,6.20
2022-10-25T12:55:41.105Z,5.10
2022-10-25T12:58:36.520Z,4.40
2022-10-25T13:01:37.173Z,4.70
2022-10-25T13:04:33.592Z,3.90
2022-10-25T13:07:17.034Z,5.60
2022-10-25T13:10:07.865Z,4.40
2022-10-25T13:12:59.195Z,7.60
2022-10-25T13:15:48.079Z,5.40
2022-10-25T13:18:35.538Z,6.60
2022-10-25T13:21:53.392Z,5.50
2022-10-25T13:24:45.625Z,5.20
2022-10-25T13:27:32.931Z,13.80
2022-10-25T13:30:32.128Z,8.30
2022-10-25T13:33:24.581Z,7.50
2022-10-25T13:36:06.572Z,8.30
2022-10-25T13:39:04.138Z,7.20
2022-10-25T13:41:46.133Z,7.20
2022-10-25T13:44:28.236Z,7.70
2022-10-25T13:47:26.363Z,6.40
2022-10-25T13:50:19.982Z,9.30
2022-10-25T13:53:08.380Z,8.00
2022-10-25T13:56:08.328Z,6.60
2022-10-25T13:58:53.116Z,9.30
2022-10-25T14:01:35.205Z,6.70
2022-10-25T14:04:23.352Z,11.10
2022-10-25T14:07:43.139Z,9.30
2022-10-25T14:10:31.214Z,13.50
2022-10-25T14:13:30.689Z,9.40
2022-10-25T14:16:32.254Z,9.60
2022-10-25T14:19:23.720Z,13.00
2022-10-25T14:22:15.287Z,8.00
2022-10-25T14:24:58.615Z,8.20
2022-10-25T14:27:41.023Z,6.80
2022-10-25T14:30:29.473Z,9.10
2022-10-25T14:33:26.116Z,10.60
2022-10-25T14:36:23.020Z,10.50
2022-10-25T14:39:21.393Z,19.10
2022-10-25T14:42:05.425Z,10.60
2022-10-25T14:44:50.847Z,7.90
2022-10-25T14:47:37.768Z,5.80
2022-10-25T14:50:26.051Z,7.50
2022-10-25T14:53:16.523Z,10.50
2022-10-25T14:56:02.040Z,9.90
2022-10-25T14:58:44.717Z,7.30
2022-10-25T15:01:28.234Z,8.60
2022-10-25T15:04:10.366Z,10.40
2022-10-25T15:06:54.978Z,11.50
2022-10-25T15:09:49.101Z,16.90
2022-10-25T15:12:34.202Z,10.20
2022-10-25T15:15:38.799Z,11.00
2022-10-25T15:18:30.111Z,14.60
2022-10-25T15:21:18.133Z,18.70
2022-10-25T15:24:20.831Z,13.50
2022-10-25T15:27:08.266Z,12.00
2022-10-25T15:29:49.957Z,15.10
2022-10-25T15:32:33.236Z,11.30
2022-10-25T15:35:24.371Z,10.60
2022-10-25T15:38:09.232Z,11.70
2022-10-25T15:40:51.255Z,12.10
2022-10-25T15:43:33.982Z,12.50
2022-10-25T15:46:32.047Z,11.60
2022-10-25T15:49:16.312Z,12.60
2022-10-25T15:51:59.319Z,16.60
2022-10-25T15:54:44.218Z,14.50
2022-10-25T15:57:28.333Z,11.00
2022-10-25T16:00:19.695Z,17.00
2022-10-25T16:03:05.061Z,22.00
2022-10-25T16:05:50.413Z,31.70
2022-10-25T16:08:33.905Z,33.60
2022-10-25T16:11:22.410Z,25.00
2022-10-25T16:14:09.195Z,22.00
2022-10-25T16:16:53.259Z,14.60
2022-10-25T16:19:37.760Z,16.80
2022-10-25T16:22:21.028Z,19.50
2022-10-25T16:25:04.765Z,21.80
2022-10-25T16:27:50.308Z,23.90
2022-10-25T16:30:36.606Z,30.00
2022-10-25T16:33:21.409Z,36.00
2022-10-25T16:36:04.876Z,28.50
2022-10-25T16:38:50.834Z,24.60
2022-10-25T16:41:34.162Z,29.20
2022-10-25T16:44:19.619Z,35.10
2022-10-25T16:47:03.178Z,28.20
2022-10-25T16:49:46.096Z,22.80
2022-10-25T16:52:29.913Z,23.90
2022-10-25T16:55:13.828Z,26.30
2022-10-25T16:58:00.811Z,21.10
2022-10-25T17:00:44.992Z,18.10
2022-10-25T17:03:28.682Z,18.90
2022-10-25T17:06:39.669Z,20.60
2022-10-25T17:09:19.393Z,20.50
2022-10-25T17:12:01.915Z,20.50
2022-10-25T17:14:45.142Z,19.40
2022-10-25T17:17:28.370Z,18.40
2022-10-25T17:20:12.824Z,17.40
2022-10-25T17:22:54.825Z,17.10
2022-10-25T17:25:36.446Z,17.40
2022-10-25T17:28:20.025Z,18.80
2022-10-25T17:31:09.603Z,18.60
2022-10-25T17:33:53.738Z,16.30
2022-10-25T17:36:39.775Z,15.10
2022-10-25T17:39:24.595Z,16.00
2022-10-25T17:42:12.089Z,17.60
2022-10-25T17:44:56.103Z,15.90
2022-10-25T17:47:43.734Z,16.40
2022-10-25T17:50:32.590Z,18.00
2022-10-25T17:53:17.828Z,19.90
2022-10-25T17:56:16.792Z,17.00
2022-10-25T17:59:04.241Z,19.70
2022-10-25T18:01:51.508Z,19.20
2022-10-25T18:04:53.286Z,20.00
2022-10-25T18:07:39.482Z,18.30
2022-10-25T18:10:23.081Z,19.90
2022-10-25T18:13:06.890Z,19.00
2022-10-25T18:15:51.325Z,20.60
2022-10-25T18:18:33.398Z,18.90
2022-10-25T18:21:17.957Z,17.80
2022-10-25T18:24:05.436Z,21.80
2022-10-25T18:26:47.685Z,21.50
2022-10-25T18:29:30.884Z,19.50
2022-10-25T18:32:12.807Z,17.10
2022-10-25T18:34:55.932Z,19.30
2022-10-25T18:37:37.827Z,20.30
2022-10-25T18:40:19.723Z,21.00
2022-10-25T18:43:01.619Z,19.30
2022-10-25T18:45:44.845Z,17.70
2022-10-25T18:48:27.295Z,19.10
2022-10-25T18:51:13.964Z,20.50
2022-10-25T18:54:10.071Z,17.50
2022-10-25T18:56:56.553Z,18.60
2022-10-25T18:59:48.081Z,15.70
2022-10-25T19:07:47.770Z,13.60
2022-10-25T19:10:33.599Z,13.30
2022-10-25T19:13:22.298Z,11.80
2022-10-25T19:16:25.237Z,12.40
2022-10-25T19:19:22.568Z,12.00
2022-10-25T19:22:11.400Z,12.50
2022-10-25T19:24:55.409Z,11.70
2022-10-25T19:27:38.582Z,12.40
2022-10-25T19:30:25.434Z,12.30
2022-10-25T19:33:07.931Z,12.40
2022-10-25T19:35:52.913Z,13.00
2022-10-25T19:38:37.085Z,11.30
2022-10-25T19:41:23.215Z,11.50
2022-10-25T19:44:05.115Z,11.80
2022-10-25T19:46:50.638Z,10.90
2022-10-25T19:49:32.670Z,11.50
2022-10-25T19:52:14.382Z,11.80
2022-10-25T19:54:56.098Z,12.10
2022-10-25T19:57:40.667Z,13.70
2022-10-25T20:00:25.787Z,18.00
2022-10-25T20:03:10.785Z,24.30
2022-10-25T20:06:03.017Z,31.10
2022-10-25T20:08:51.358Z,27.80
2022-10-25T20:11:34.173Z,26.90
2022-10-25T20:14:15.972Z,25.70
2022-10-25T20:16:57.965Z,20.90
2022-10-25T20:19:39.964Z,22.00
2022-10-25T20:22:23.866Z,19.10
2022-10-25T20:25:09.515Z,17.90
2022-10-25T20:27:54.758Z,18.50
2022-10-25T20:30:43.110Z,18.50
2022-10-25T20:33:28.124Z,19.60
2022-10-25T20:36:15.294Z,20.20
2022-10-25T20:39:00.501Z,18.40
2022-10-25T20:41:46.046Z,17.60
2022-10-25T20:44:31.031Z,15.80
2022-10-25T20:47:14.577Z,13.60
2022-10-25T20:49:57.162Z,14.80
2022-10-25T20:52:43.203Z,14.30
2022-10-25T20:55:30.688Z,13.00
2022-10-25T20:58:12.482Z,12.40
2022-10-25T21:00:57.690Z,15.20
2022-10-25T21:03:43.239Z,18.60
2022-10-25T21:06:26.462Z,14.10
2022-10-25T21:09:08.667Z,16.70
2022-10-25T21:11:50.884Z,16.90
2022-10-25T21:14:33.120Z,14.80
2022-10-25T21:17:15.517Z,13.30
2022-10-25T21:19:57.493Z,14.00
2022-10-25T21:22:41.451Z,16.80
2022-10-25T21:25:24.789Z,15.50
2022-10-25T21:28:07.909Z,15.20
2022-10-25T21:30:51.898Z,16.10
2022-10-25T21:33:33.918Z,16.60
2022-10-25T21:36:17.455Z,18.90
2022-10-25T21:38:59.665Z,17.80
2022-10-25T21:41:42.268Z,19.10
2022-10-25T21:44:24.676Z,19.20
2022-10-25T21:47:07.198Z,18.30
2022-10-25T21:49:49.830Z,17.40
2022-10-25T21:52:32.515Z,18.10
2022-10-25T21:55:15.565Z,17.90
2022-10-25T21:57:58.448Z,17.90
2022-10-25T22:00:44.056Z,17.30
2022-10-25T22:03:29.830Z,17.10
2022-10-25T22:06:14.953Z,19.60
2022-10-25T22:08:57.407Z,18.20
2022-10-25T22:11:42.467Z,18.10
2022-10-25T22:14:25.116Z,17.80
2022-10-25T22:17:09.273Z,18.10
2022-10-25T22:19:51.950Z,18.20
2022-10-25T22:22:34.186Z,18.00
2022-10-25T22:25:16.334Z,17.30
2022-10-25T22:27:58.485Z,17.50
2022-10-25T22:30:41.253Z,16.00
2022-10-25T22:33:23.282Z,17.20
2022-10-25T22:36:10.584Z,18.00
2022-10-25T22:38:53.443Z,17.90
2022-10-25T22:41:35.925Z,18.80
2022-10-25T22:44:17.679Z,18.60
2022-10-25T22:47:01.852Z,17.40
2022-10-25T22:49:46.218Z,17.30
2022-10-25T22:52:28.426Z,16.40
2022-10-25T22:55:10.626Z,14.20
2022-10-25T22:57:56.986Z,15.20
2022-10-25T23:00:39.850Z,15.80
2022-10-25T23:03:21.858Z,17.90
2022-10-25T23:06:06.026Z,16.30
2022-10-25T23:08:48.500Z,16.00
2022-10-25T23:11:36.380Z,15.80
2022-10-25T23:14:18.959Z,16.00
2022-10-25T23:17:01.764Z,15.00
2022-10-25T23:19:43.778Z,14.50
2022-10-25T23:22:26.201Z,14.30
2022-10-25T23:25:09.028Z,15.40
2022-10-25T23:27:51.367Z,15.20
2022-10-25T23:30:37.662Z,15.10
2022-10-25T23:33:19.590Z,15.80
2022-10-25T23:36:03.815Z,15.20
2022-10-25T23:38:47.930Z,13.30
2022-10-25T23:41:30.358Z,12.90
2022-10-25T23:44:12.418Z,12.90
2022-10-25T23:46:54.497Z,13.70
2022-10-25T23:49:36.912Z,12.80
2022-10-25T23:52:19.521Z,12.70
2022-10-25T23:55:02.360Z,14.20
2022-10-25T23:57:45.313Z,13.80
